Time;durP1;ratioP1;P1;durP2;ratioP2;P2;SDS_P1;SDS_P2;PMS_P1;PMS_P2;Temp;Humidity;BMP_temperature;BMP_pressure;BME280_temperature;BME280_humidity;BME280_pressure;Samples;Min_cycle;Max_cycle;Signal;HPM_P1;HPM_P2
2022/05/14 09:57:50;;;;;;;4.00;1.58;;;25.40;90.40;;;;;;3590538;23;20318;-72
2022/05/14 10:00:21;;;;;;;5.05;1.17;;;24.70;91.40;;;;;;4943620;28;20201;-73
2022/05/14 10:03:05;;;;;;;4.18;0.80;;;24.10;90.50;;;;;;4951926;29;20663;-73
2022/05/14 10:05:50;;;;;;;2.97;1.08;;;24.00;91.20;;;;;;4946267;28;20236;-73
2022/05/14 10:08:31;;;;;;;5.13;1.10;;;23.70;91.60;;;;;;4942690;29;20212;-72
2022/05/14 10:11:07;;;;;;;2.85;0.88;;;23.70;91.50;;;;;;4937613;29;20689;-72
2022/05/14 10:13:42;;;;;;;4.10;0.98;;;23.60;92.50;;;;;;4937196;29;20557;-72
2022/05/14 10:16:20;;;;;;;3.42;1.13;;;23.30;92.10;;;;;;4938341;29;20247;-72
2022/05/14 10:19:06;;;;;;;5.05;1.10;;;23.10;92.00;;;;;;4938758;29;20220;-72
2022/05/14 10:21:45;;;;;;;1.70;0.80;;;23.00;92.10;;;;;;4938623;29;20209;-72
2022/05/14 10:27:25;;;;;;;3.55;0.82;;;22.80;92.10;;;;;;4938706;29;20211;-73
2022/05/14 10:30:03;;;;;;;5.03;1.23;;;22.80;92.50;;;;;;4938607;29;20574;-72
2022/05/14 10:32:32;;;;;;;3.65;0.88;;;22.40;93.40;;;;;;4938603;29;20215;-71
2022/05/14 10:35:05;;;;;;;5.38;1.83;;;22.50;92.60;;;;;;4938227;29;20237;-72
2022/05/14 10:37:36;;;;;;;5.05;1.20;;;22.60;92.90;;;;;;4938630;29;20208;-71
2022/05/14 10:40:14;;;;;;;4.30;1.02;;;22.40;93.50;;;;;;4938534;29;20213;-72
2022/05/14 10:42:49;;;;;;;4.28;1.25;;;22.30;94.10;;;;;;4938117;29;20215;-71
2022/05/14 10:45:21;;;;;;;2.65;0.90;;;22.20;93.10;;;;;;4937901;29;20244;-72
2022/05/14 10:47:58;;;;;;;6.13;1.25;;;22.30;93.40;;;;;;4938489;29;20213;-72
2022/05/14 10:50:28;;;;;;;2.70;1.00;;;22.40;93.90;;;;;;4938089;29;20208;-72
2022/05/14 10:52:55;;;;;;;3.42;1.08;;;22.60;93.40;;;;;;4938169;29;20209;-72
2022/05/14 10:55:26;;;;;;;4.43;1.17;;;22.80;92.80;;;;;;4937573;29;20244;-71
2022/05/14 10:57:57;;;;;;;3.38;1.15;;;22.80;92.50;;;;;;4937770;29;20583;-72
2022/05/14 11:00:39;;;;;;;4.18;1.10;;;22.90;92.10;;;;;;4937776;29;20209;-71
2022/05/14 11:03:15;;;;;;;3.08;1.08;;;22.80;92.00;;;;;;4937960;29;20264;-71
2022/05/14 11:06:09;;;;;;;5.00;1.40;;;22.60;92.20;;;;;;4937876;29;20236;-71
2022/05/14 11:08:37;;;;;;;3.97;1.13;;;22.70;93.40;;;;;;4942582;28;20686;-71
2022/05/14 11:11:10;;;;;;;2.45;0.98;;;22.90;92.90;;;;;;4953701;28;20214;-71
2022/05/14 11:13:37;;;;;;;2.03;1.05;;;22.70;92.60;;;;;;4975762;28;20705;-72
2022/05/14 11:16:07;;;;;;;4.72;1.27;;;22.70;92.90;;;;;;4937267;29;20237;-73
2022/05/14 11:18:45;;;;;;;4.22;1.27;;;22.80;92.60;;;;;;4945622;28;20215;-73
2022/05/14 11:21:13;;;;;;;3.08;1.00;;;22.80;92.80;;;;;;4956625;28;20214;-73
2022/05/14 11:23:54;;;;;;;4.60;1.58;;;22.90;92.70;;;;;;4956354;28;20309;-71
2022/05/14 11:26:21;;;;;;;5.90;1.42;;;23.10;93.50;;;;;;4956227;28;20214;-72
2022/05/14 11:28:58;;;;;;;5.30;1.40;;;23.30;91.90;;;;;;4955952;28;20212;-73
2022/05/14 11:31:29;;;;;;;2.85;1.10;;;23.40;91.50;;;;;;4953230;28;20211;-71
2022/05/14 11:33:59;;;;;;;6.72;1.00;;;23.20;92.20;;;;;;4954907;29;20212;-72
2022/05/14 11:36:28;;;;;;;5.88;1.00;;;23.20;90.60;;;;;;4956498;28;20208;-71
2022/05/14 11:39:25;;;;;;;2.67;1.08;;;23.10;91.50;;;;;;4956506;28;20212;-71
2022/05/14 11:41:53;;;;;;;4.63;1.10;;;23.30;90.70;;;;;;4954740;29;20301;-71
2022/05/14 11:44:32;;;;;;;2.20;1.15;;;23.20;91.40;;;;;;4956243;28;20232;-72
2022/05/14 11:47:03;;;;;;;2.28;0.93;;;23.20;90.40;;;;;;4956393;28;20204;-71
2022/05/14 11:49:34;;;;;;;4.70;1.50;;;23.10;91.80;;;;;;4956302;28;20208;-72
2022/05/14 11:52:09;;;;;;;4.40;1.50;;;23.00;90.90;;;;;;4956129;28;20208;-71
2022/05/14 11:54:41;;;;;;;3.35;1.45;;;22.90;90.10;;;;;;4956199;28;20239;-72
2022/05/14 11:57:13;;;;;;;3.75;1.00;;;22.90;90.00;;;;;;4956282;28;20286;-71
2022/05/14 11:59:43;;;;;;;2.08;1.00;;;23.10;91.30;;;;;;4955622;28;20218;-72
2022/05/14 12:02:20;;;;;;;3.75;1.30;;;23.10;90.30;;;;;;4955606;28;20208;-72
2022/05/14 12:04:52;;;;;;;8.98;1.55;;;23.10;88.90;;;;;;4955731;28;20232;-72
2022/05/14 12:07:43;;;;;;;3.13;1.13;;;23.20;89.50;;;;;;4955529;28;20204;-72
2022/05/14 12:10:21;;;;;;;3.95;1.20;;;23.10;87.70;;;;;;4955720;28;20211;-72
2022/05/14 12:12:54;;;;;;;2.38;0.80;;;23.20;90.10;;;;;;4955635;28;20674;-72
2022/05/14 12:15:24;;;;;;;4.43;0.90;;;23.20;90.00;;;;;;4952223;28;20239;-72
2022/05/14 12:17:54;;;;;;;6.88;1.38;;;23.10;90.20;;;;;;4973592;28;20210;-73
2022/05/14 12:20:25;;;;;;;3.03;1.10;;;23.20;89.70;;;;;;4972450;28;20207;-72
2022/05/14 12:22:55;;;;;;;2.67;0.93;;;23.10;90.20;;;;;;4953089;28;20678;-73
2022/05/14 12:25:33;;;;;;;4.93;1.20;;;23.10;90.00;;;;;;4954429;28;20299;-72
2022/05/14 12:28:00;;;;;;;3.78;1.20;;;23.00;91.80;;;;;;4954370;28;20211;-73
2022/05/14 12:33:19;;;;;;;3.45;1.00;;;23.10;90.80;;;;;;4953784;28;20363;-73
2022/05/14 12:35:52;;;;;;;3.85;1.10;;;23.10;90.50;;;;;;4954344;28;20323;-73
2022/05/14 12:38:28;;;;;;;4.28;0.95;;;23.20;90.60;;;;;;4953474;28;20212;-73
2022/05/14 12:40:55;;;;;;;3.55;0.90;;;23.10;90.40;;;;;;4950162;28;20203;-73
2022/05/14 12:43:22;;;;;;;3.10;1.05;;;23.10;90.30;;;;;;4951158;28;20204;-72
2022/05/14 12:45:59;;;;;;;4.32;1.10;;;23.20;89.10;;;;;;4952743;28;20224;-72
2022/05/14 12:48:27;;;;;;;2.13;1.00;;;23.20;89.60;;;;;;4953761;28;20211;-71
2022/05/14 12:50:56;;;;;;;2.40;1.08;;;22.90;89.50;;;;;;4954015;28;20200;-73
2022/05/14 12:53:34;;;;;;;2.50;1.05;;;23.00;90.40;;;;;;4953403;28;20212;-72
2022/05/14 12:56:01;;;;;;;2.97;1.05;;;23.00;90.50;;;;;;4953311;28;20231;-73
2022/05/14 12:58:30;;;;;;;5.53;1.27;;;23.10;90.00;;;;;;4953259;28;20224;-73
2022/05/14 13:00:57;;;;;;;5.25;1.60;;;23.00;89.40;;;;;;4953183;28;20200;-76
2022/05/14 13:03:31;;;;;;;4.57;1.20;;;23.20;90.90;;;;;;4953525;28;20204;-72
2022/05/14 13:06:01;;;;;;;1.60;1.10;;;23.30;89.00;;;;;;4953104;28;20658;-76
2022/05/14 13:08:29;;;;;;;3.17;0.95;;;23.30;89.90;;;;;;4953393;28;20215;-74
2022/05/14 13:10:59;;;;;;;4.85;1.20;;;23.40;89.40;;;;;;4952535;28;20204;-76
2022/05/14 13:13:36;;;;;;;2.88;0.90;;;23.40;88.20;;;;;;4954641;28;20207;-71
2022/05/14 13:16:12;;;;;;;1.85;0.90;;;23.50;87.20;;;;;;4954877;28;20246;-71
2022/05/14 13:18:45;;;;;;;2.05;1.10;;;23.50;89.50;;;;;;4955183;28;20241;-71
2022/05/14 13:21:19;;;;;;;3.72;1.20;;;23.50;90.10;;;;;;4954843;28;20682;-70
2022/05/14 13:23:57;;;;;;;3.33;1.30;;;23.40;89.40;;;;;;4954823;28;20219;-72
2022/05/14 13:26:27;;;;;;;4.82;1.02;;;23.50;88.80;;;;;;4954577;28;20571;-70
2022/05/14 13:28:54;;;;;;;1.73;0.90;;;23.40;86.20;;;;;;4954861;28;20703;-71
2022/05/14 13:31:23;;;;;;;1.13;0.80;;;23.10;84.40;;;;;;4954919;28;20685;-73
2022/05/14 13:33:59;;;;;;;4.15;1.20;;;23.00;86.80;;;;;;4956519;28;20681;-72
2022/05/14 13:39:13;;;;;;;3.92;1.00;;;23.30;86.40;;;;;;4958601;29;20298;-71
2022/05/14 13:41:43;;;;;;;2.97;0.93;;;23.40;88.10;;;;;;4958405;28;20211;-70
2022/05/14 13:44:17;;;;;;;4.25;1.27;;;23.50;90.10;;;;;;4958305;28;20208;-71
2022/05/14 13:46:48;;;;;;;1.63;0.90;;;23.20;88.60;;;;;;4958412;28;20215;-72
2022/05/14 13:49:22;;;;;;;2.55;0.90;;;23.30;86.80;;;;;;4958693;28;20235;-71
2022/05/14 13:51:52;;;;;;;2.08;1.05;;;23.50;88.20;;;;;;4958230;28;20570;-71
2022/05/14 13:54:31;;;;;;;2.55;1.15;;;23.60;87.60;;;;;;4958240;28;20236;-71
2022/05/14 13:57:01;;;;;;;1.67;0.88;;;23.50;87.30;;;;;;4957914;28;20246;-72
2022/05/14 13:59:30;;;;;;;4.80;1.35;;;23.60;85.70;;;;;;4958355;28;20212;-72
2022/05/14 14:02:16;;;;;;;2.47;1.20;;;23.80;85.70;;;;;;4958140;28;20204;-73
2022/05/14 14:04:44;;;;;;;3.20;1.10;;;23.80;85.90;;;;;;4958045;28;20228;-72
2022/05/14 14:07:12;;;;;;;3.80;1.23;;;23.40;83.50;;;;;;4958010;28;20211;-72
2022/05/14 14:09:40;;;;;;;3.67;1.85;;;23.10;85.50;;;;;;4957944;28;20203;-72
2022/05/14 14:12:08;;;;;;;3.88;0.95;;;23.00;86.70;;;;;;4957859;28;20208;-71
2022/05/14 14:14:35;;;;;;;2.35;0.98;;;23.20;89.20;;;;;;4957460;28;20729;-71
2022/05/14 14:17:02;;;;;;;2.42;1.10;;;23.40;89.20;;;;;;4957929;28;20232;-71
2022/05/14 14:19:29;;;;;;;2.60;1.15;;;23.60;88.20;;;;;;4957802;28;20309;-72
2022/05/14 14:22:02;;;;;;;7.18;2.78;;;23.70;89.00;;;;;;4957674;28;20204;-71
2022/05/14 14:24:30;;;;;;;3.65;1.27;;;23.90;88.30;;;;;;4958004;28;20228;-71
2022/05/14 14:26:58;;;;;;;3.08;1.15;;;24.00;86.60;;;;;;4957758;28;20670;-71
2022/05/14 14:29:24;;;;;;;3.97;1.40;;;24.00;86.50;;;;;;4957591;28;20211;-72
2022/05/14 14:31:51;;;;;;;1.67;0.98;;;23.70;86.80;;;;;;4957408;28;20212;-72
2022/05/14 14:34:18;;;;;;;4.32;1.23;;;23.70;86.40;;;;;;4957480;28;20703;-73
2022/05/14 14:36:45;;;;;;;2.83;1.00;;;23.60;86.40;;;;;;4957591;28;20243;-72
2022/05/14 14:39:13;;;;;;;4.80;1.10;;;23.40;87.00;;;;;;4957787;28;20215;-72
2022/05/14 14:41:41;;;;;;;4.15;0.93;;;23.50;88.40;;;;;;4957445;28;20690;-71
2022/05/14 14:44:08;;;;;;;3.90;0.98;;;23.70;87.10;;;;;;4957438;28;20207;-73
2022/05/14 14:46:36;;;;;;;2.72;1.20;;;23.50;87.70;;;;;;4956582;28;20689;-73
2022/05/14 14:49:08;;;;;;;4.85;1.50;;;23.30;87.60;;;;;;4957411;28;20310;-73
2022/05/14 14:51:35;;;;;;;4.18;0.98;;;23.20;87.90;;;;;;4957442;28;20255;-73
2022/05/14 14:54:02;;;;;;;3.88;0.93;;;23.20;87.90;;;;;;4957428;28;20214;-73
2022/05/14 14:56:30;;;;;;;4.45;1.35;;;23.20;87.50;;;;;;4957227;28;20239;-73
2022/05/14 14:58:57;;;;;;;2.00;1.00;;;23.20;87.50;;;;;;4956862;28;20303;-72
2022/05/14 15:01:28;;;;;;;2.83;1.00;;;23.40;88.00;;;;;;4957125;28;20212;-72
2022/05/14 15:03:58;;;;;;;3.88;1.55;;;23.40;87.80;;;;;;4957350;28;20234;-72
2022/05/14 15:06:25;;;;;;;3.10;0.98;;;23.70;86.80;;;;;;4957181;28;20215;-72
2022/05/14 15:08:53;;;;;;;1.60;0.80;;;23.90;86.00;;;;;;4956732;28;20238;-72
2022/05/14 15:11:23;;;;;;;3.50;1.02;;;24.00;87.50;;;;;;4957019;28;20223;-73
2022/05/14 15:13:55;;;;;;;3.63;1.15;;;23.90;86.40;;;;;;4956516;28;20319;-73
2022/05/14 15:16:22;;;;;;;3.42;1.00;;;23.50;86.00;;;;;;4956792;28;20235;-73
2022/05/14 15:18:49;;;;;;;1.60;1.00;;;23.50;86.10;;;;;;4956758;28;20259;-73
2022/05/14 15:21:16;;;;;;;5.13;0.88;;;23.50;85.80;;;;;;4956713;28;20545;-73
2022/05/14 15:23:43;;;;;;;2.42;1.10;;;23.70;85.20;;;;;;4956695;28;20218;-72
2022/05/14 15:26:10;;;;;;;2.00;1.00;;;23.80;87.00;;;;;;4956604;28;20620;-72
2022/05/14 15:28:37;;;;;;;4.03;1.02;;;24.00;85.80;;;;;;4956769;28;20249;-73
2022/05/14 15:31:10;;;;;;;5.93;1.35;;;23.70;85.70;;;;;;4956675;28;20271;-73
2022/05/14 15:33:37;;;;;;;2.15;0.90;;;23.70;85.60;;;;;;4956792;28;20215;-72
2022/05/14 15:36:04;;;;;;;3.03;0.90;;;23.80;86.40;;;;;;4956424;28;20251;-72
2022/05/14 15:38:31;;;;;;;3.08;1.20;;;24.00;86.90;;;;;;4956555;28;20299;-72
2022/05/14 15:40:58;;;;;;;3.13;1.00;;;24.10;85.40;;;;;;4956383;28;20216;-72
2022/05/14 15:43:29;;;;;;;2.78;1.20;;;24.20;85.00;;;;;;4956673;28;20320;-72
2022/05/14 15:45:59;;;;;;;3.45;0.75;;;24.20;84.50;;;;;;4956365;28;20260;-72
2022/05/14 15:48:30;;;;;;;1.50;0.90;;;24.10;85.00;;;;;;4956503;28;20204;-72
2022/05/14 15:50:58;;;;;;;2.33;0.90;;;23.80;85.50;;;;;;4956432;28;20696;-74
2022/05/14 15:53:26;;;;;;;3.10;1.00;;;23.90;84.90;;;;;;4956201;28;20216;-73
2022/05/14 15:55:55;;;;;;;3.05;0.93;;;23.90;86.10;;;;;;4956824;28;20243;-73
2022/05/14 15:58:22;;;;;;;2.63;1.10;;;23.90;85.90;;;;;;4954953;28;20216;-73
2022/05/14 16:00:49;;;;;;;2.97;0.70;;;23.50;86.30;;;;;;4955779;28;20296;-72
2022/05/14 16:03:16;;;;;;;1.98;1.05;;;23.50;86.60;;;;;;4955898;28;20211;-73
2022/05/14 16:05:44;;;;;;;1.17;0.68;;;23.50;84.80;;;;;;4955563;28;20228;-72
2022/05/14 16:08:11;;;;;;;2.92;0.90;;;23.40;85.90;;;;;;4955876;28;20212;-73
2022/05/14 16:16:09;;;;;;;3.22;0.80;;;23.70;85.80;;;;;;4955744;28;20251;-74
2022/05/14 16:18:39;;;;;;;2.05;0.80;;;23.80;85.70;;;;;;4955535;28;20219;-73
2022/05/14 16:21:09;;;;;;;2.17;0.90;;;23.80;85.80;;;;;;4955988;28;20216;-73
2022/05/14 16:23:37;;;;;;;1.92;1.10;;;23.70;86.70;;;;;;4955503;28;20200;-72
2022/05/14 16:26:05;;;;;;;5.00;0.93;;;23.70;87.80;;;;;;4955326;28;20235;-72
2022/05/14 16:28:32;;;;;;;2.30;0.98;;;23.70;86.00;;;;;;4955602;28;20575;-73
2022/05/14 16:31:00;;;;;;;2.83;1.20;;;23.90;84.50;;;;;;4956472;28;20218;-74
2022/05/14 16:33:28;;;;;;;2.05;0.90;;;23.80;85.80;;;;;;4957451;28;20575;-73
2022/05/14 16:35:56;;;;;;;3.30;0.90;;;23.80;85.10;;;;;;4957394;28;20240;-72
2022/05/14 16:38:24;;;;;;;5.13;0.95;;;23.90;84.50;;;;;;4957974;28;20223;-73
2022/05/14 16:40:51;;;;;;;5.28;0.98;;;23.90;84.40;;;;;;4956112;28;20211;-72
2022/05/14 16:43:18;;;;;;;2.38;0.82;;;23.60;86.10;;;;;;4955142;28;20208;-73
2022/05/14 16:45:45;;;;;;;2.08;0.90;;;23.40;87.20;;;;;;4954755;28;20287;-72
2022/05/14 16:48:13;;;;;;;3.05;0.80;;;23.30;86.90;;;;;;4955313;28;20212;-71
2022/05/14 16:50:41;;;;;;;1.33;0.68;;;23.30;86.80;;;;;;4955446;28;20231;-72
2022/05/14 16:53:08;;;;;;;1.88;0.98;;;23.50;86.60;;;;;;4955261;28;20207;-71
2022/05/14 16:55:36;;;;;;;2.72;0.60;;;23.60;85.70;;;;;;4955218;28;20227;-71
2022/05/14 16:58:04;;;;;;;1.27;0.68;;;23.70;86.30;;;;;;4954970;28;20707;-73
2022/05/14 17:00:34;;;;;;;4.55;0.90;;;23.40;86.20;;;;;;4954598;28;20208;-71
2022/05/14 17:03:01;;;;;;;1.73;0.70;;;23.40;88.60;;;;;;4955019;28;20211;-72
2022/05/14 17:05:29;;;;;;;2.58;0.70;;;23.40;86.80;;;;;;4954870;28;20770;-72
2022/05/14 17:07:55;;;;;;;2.38;0.80;;;23.40;87.50;;;;;;4954792;28;20214;-72
2022/05/14 17:10:25;;;;;;;4.18;0.90;;;23.30;87.10;;;;;;4955014;28;20290;-72
2022/05/14 17:12:54;;;;;;;3.05;1.08;;;23.30;86.80;;;;;;4954722;28;20216;-71
2022/05/14 17:15:21;;;;;;;2.25;0.70;;;23.30;87.20;;;;;;4954721;28;20326;-72
2022/05/14 17:17:49;;;;;;;1.85;0.80;;;23.30;88.10;;;;;;4954875;28;20235;-74
2022/05/14 17:20:19;;;;;;;2.85;0.77;;;23.20;87.70;;;;;;4954993;28;20214;-72
2022/05/14 17:22:46;;;;;;;3.20;0.70;;;22.90;88.70;;;;;;4954739;28;20563;-71
2022/05/14 17:25:13;;;;;;;3.33;0.80;;;22.80;87.90;;;;;;4954719;28;20335;-72
2022/05/14 17:27:40;;;;;;;3.08;0.77;;;22.90;88.40;;;;;;4954549;28;20218;-72
2022/05/14 17:30:11;;;;;;;1.75;0.70;;;23.00;88.10;;;;;;4954619;28;20212;-72
2022/05/14 17:32:38;;;;;;;5.75;1.40;;;23.00;87.60;;;;;;4954233;28;20211;-73
2022/05/14 17:35:06;;;;;;;1.77;0.80;;;23.30;87.80;;;;;;4953980;28;20236;-71
2022/05/14 17:40:19;;;;;;;5.22;0.90;;;23.40;86.60;;;;;;4953918;29;20219;-71
2022/05/14 17:42:46;;;;;;;2.05;0.90;;;23.50;85.80;;;;;;4943253;29;20205;-72
2022/05/14 17:45:15;;;;;;;1.90;0.73;;;23.20;87.10;;;;;;4942974;28;20220;-72
2022/05/14 17:47:42;;;;;;;2.85;0.90;;;22.80;87.70;;;;;;4942800;29;20205;-72
2022/05/14 17:50:12;;;;;;;2.65;0.93;;;22.90;88.00;;;;;;4954244;28;20212;-72
2022/05/14 17:52:40;;;;;;;3.28;0.70;;;22.80;87.50;;;;;;4954544;28;20212;-72
2022/05/14 17:55:10;;;;;;;3.00;0.75;;;22.70;88.10;;;;;;4954240;28;20291;-72
2022/05/14 17:57:36;;;;;;;1.35;0.82;;;22.60;89.10;;;;;;4954254;28;20576;-73
2022/05/14 18:00:05;;;;;;;1.85;0.95;;;22.60;88.40;;;;;;4954417;28;20211;-72
2022/05/14 18:02:33;;;;;;;4.22;1.08;;;22.60;88.30;;;;;;4954207;28;20215;-73
2022/05/14 18:05:00;;;;;;;2.78;1.17;;;22.60;88.60;;;;;;4953836;28;20238;-73
2022/05/14 18:07:27;;;;;;;4.20;1.15;;;22.50;88.80;;;;;;4954184;28;20693;-73
2022/05/14 18:09:54;;;;;;;2.08;0.82;;;22.50;89.30;;;;;;4954491;28;20268;-72
2022/05/14 18:12:21;;;;;;;4.13;0.80;;;22.40;88.50;;;;;;4954179;28;20216;-72
2022/05/14 18:14:48;;;;;;;1.85;1.02;;;22.40;88.70;;;;;;4953858;28;20228;-72
2022/05/14 18:17:15;;;;;;;2.88;0.85;;;22.30;88.20;;;;;;4950388;28;20240;-73
2022/05/14 18:19:44;;;;;;;1.42;0.70;;;22.30;87.90;;;;;;4940443;28;20272;-72
2022/05/14 18:22:10;;;;;;;2.10;0.70;;;22.20;87.50;;;;;;4947333;28;20204;-72
2022/05/14 18:24:37;;;;;;;3.30;0.80;;;22.20;87.80;;;;;;4946322;28;20228;-72
2022/05/14 18:27:10;;;;;;;3.38;1.08;;;22.20;87.90;;;;;;4950937;29;20303;-72
2022/05/14 18:29:40;;;;;;;3.75;1.00;;;22.20;87.70;;;;;;4943943;28;20304;-73
2022/05/14 18:32:11;;;;;;;1.65;0.93;;;22.10;87.80;;;;;;4947308;29;20220;-72
2022/05/14 18:34:40;;;;;;;1.90;0.80;;;22.00;88.60;;;;;;4943245;28;20228;-72
2022/05/14 18:37:12;;;;;;;1.83;0.65;;;21.90;88.60;;;;;;4949659;29;20236;-73
2022/05/14 18:39:40;;;;;;;3.47;0.90;;;22.00;88.60;;;;;;4948052;28;20205;-73
2022/05/14 18:42:09;;;;;;;2.25;0.98;;;22.10;88.20;;;;;;4949357;29;20212;-72
2022/05/14 18:44:39;;;;;;;1.65;0.90;;;22.00;89.10;;;;;;4942959;28;20225;-72
2022/05/14 18:47:06;;;;;;;1.67;0.90;;;22.00;89.10;;;;;;4949165;28;20220;-72
2022/05/14 18:49:33;;;;;;;2.70;1.10;;;22.00;89.20;;;;;;4947980;28;20300;-72
2022/05/14 18:52:00;;;;;;;2.85;1.17;;;21.90;89.70;;;;;;4946570;28;20209;-74
2022/05/14 18:54:28;;;;;;;2.13;1.08;;;21.90;91.00;;;;;;4946709;29;20228;-72
2022/05/14 18:56:55;;;;;;;2.75;1.00;;;21.80;91.10;;;;;;4948187;28;20236;-72
2022/05/14 18:59:22;;;;;;;1.30;0.70;;;21.80;90.70;;;;;;4948067;28;20215;-73
2022/05/14 19:01:48;;;;;;;2.25;0.85;;;21.60;90.60;;;;;;4951298;28;20259;-72
2022/05/14 19:07:21;;;;;;;5.72;1.15;;;21.40;93.20;;;;;;4947303;29;20303;-72
2022/05/14 19:09:51;;;;;;;4.70;1.00;;;21.40;91.50;;;;;;4949933;29;20261;-73
2022/05/14 19:12:19;;;;;;;5.53;1.50;;;21.40;91.90;;;;;;4944710;29;20208;-72
2022/05/14 19:14:47;;;;;;;4.22;2.15;;;21.20;92.20;;;;;;4940867;29;20315;-72
2022/05/14 19:17:16;;;;;;;7.95;1.48;;;21.20;92.50;;;;;;4948022;28;20291;-72
2022/05/14 19:19:44;;;;;;;4.47;1.58;;;21.10;92.70;;;;;;4946044;28;20580;-73
2022/05/14 19:22:12;;;;;;;6.40;2.08;;;20.90;93.10;;;;;;4944388;29;20209;-73
2022/05/14 19:24:40;;;;;;;4.28;1.55;;;20.80;93.40;;;;;;4948417;28;20679;-73
2022/05/14 19:27:09;;;;;;;4.65;2.75;;;20.80;93.50;;;;;;4944504;28;20238;-72
2022/05/14 19:29:36;;;;;;;4.68;2.28;;;20.60;93.80;;;;;;4945018;28;20215;-72
2022/05/14 19:32:04;;;;;;;3.65;2.58;;;20.50;94.10;;;;;;4947522;28;20674;-73
2022/05/14 19:34:30;;;;;;;5.05;2.42;;;20.40;94.30;;;;;;4951811;28;20236;-74
2022/05/14 19:37:01;;;;;;;6.35;2.92;;;20.40;94.50;;;;;;4940941;29;20236;-72
2022/05/14 19:39:34;;;;;;;6.47;2.30;;;20.30;94.60;;;;;;4951710;28;20201;-74
2022/05/14 19:42:06;;;;;;;5.55;2.17;;;20.20;94.80;;;;;;4945854;29;20208;-72
2022/05/14 19:44:40;;;;;;;4.22;1.80;;;20.20;94.80;;;;;;4941587;29;20233;-73
2022/05/14 19:47:07;;;;;;;4.00;1.67;;;19.90;95.10;;;;;;4942168;29;20841;-73
2022/05/14 19:49:37;;;;;;;3.47;1.63;;;19.90;95.40;;;;;;4941749;28;20230;-72
2022/05/14 19:52:05;;;;;;;4.88;1.50;;;19.80;95.50;;;;;;4944862;29;20667;-72
2022/05/14 19:54:32;;;;;;;4.53;1.20;;;19.80;96.30;;;;;;4948448;28;20235;-73
2022/05/14 19:56:58;;;;;;;5.80;1.65;;;19.70;96.80;;;;;;4950797;28;20583;-72
2022/05/14 19:59:25;;;;;;;4.35;1.48;;;19.60;97.30;;;;;;4948538;28;20208;-73
2022/05/14 20:01:53;;;;;;;5.57;1.90;;;19.40;97.90;;;;;;4943226;29;20208;-73
2022/05/14 20:04:21;;;;;;;3.53;1.23;;;19.20;98.30;;;;;;4948353;28;20726;-72
2022/05/14 20:06:48;;;;;;;8.73;1.53;;;19.10;99.20;;;;;;4949715;28;20204;-72
2022/05/14 20:09:16;;;;;;;6.53;1.80;;;18.90;98.60;;;;;;4944133;28;20208;-73
2022/05/14 20:11:43;;;;;;;4.37;2.03;;;18.90;98.70;;;;;;4941864;29;20205;-72
2022/05/14 20:14:10;;;;;;;6.70;2.50;;;18.90;97.70;;;;;;4941324;28;20220;-72
2022/05/14 20:22:07;;;;;;;4.67;1.17;;;19.00;97.50;;;;;;4946031;28;20243;-73
2022/05/14 20:24:34;;;;;;;4.40;1.80;;;19.00;97.10;;;;;;4949180;28;20319;-73
2022/05/14 20:27:00;;;;;;;4.90;1.70;;;19.00;97.90;;;;;;4941476;28;20208;-72
2022/05/14 20:29:27;;;;;;;5.43;2.33;;;18.80;98.60;;;;;;4940422;29;20219;-73
2022/05/14 20:31:55;;;;;;;3.57;1.60;;;18.70;99.10;;;;;;4941601;29;20212;-73
2022/05/14 20:34:23;;;;;;;5.23;1.50;;;18.50;99.70;;;;;;4941034;28;20324;-73
2022/05/14 20:36:50;;;;;;;4.67;1.30;;;18.40;99.90;;;;;;4946077;28;20219;-73
2022/05/14 20:39:16;;;;;;;3.20;1.80;;;18.30;99.90;;;;;;4941972;28;20209;-73
2022/05/14 20:41:43;;;;;;;4.50;1.70;;;18.20;99.90;;;;;;4941982;29;20223;-73
2022/05/14 20:44:10;;;;;;;7.83;1.40;;;18.20;99.90;;;;;;4951000;28;20689;-73
2022/05/14 20:46:37;;;;;;;3.03;1.67;;;18.20;99.90;;;;;;4947209;28;20215;-73
2022/05/14 20:49:04;;;;;;;5.10;1.60;;;18.20;99.90;;;;;;4939356;29;20611;-73
2022/05/14 20:51:32;;;;;;;5.47;1.93;;;18.10;99.90;;;;;;4939810;29;20222;-73
2022/05/14 20:54:00;;;;;;;4.43;1.90;;;18.00;99.90;;;;;;4947731;28;20208;-73
2022/05/14 20:56:28;;;;;;;5.70;1.73;;;18.00;99.90;;;;;;4949624;28;20208;-72
2022/05/14 20:58:55;;;;;;;7.20;2.23;;;17.90;99.90;;;;;;4950607;28;20232;-73
2022/05/14 21:01:22;;;;;;;3.83;1.40;;;17.80;99.90;;;;;;4940564;28;20217;-72
2022/05/14 21:03:50;;;;;;;5.80;1.57;;;17.70;99.90;;;;;;4946444;28;20235;-73
2022/05/14 21:06:17;;;;;;;3.30;1.70;;;17.70;99.90;;;;;;4951639;28;20703;-72
2022/05/14 21:08:45;;;;;;;3.20;1.70;;;17.60;99.90;;;;;;4943032;28;20220;-72
2022/05/14 21:11:12;;;;;;;3.40;1.80;;;17.50;99.90;;;;;;4941191;29;20291;-73
2022/05/14 21:13:41;;;;;;;4.10;1.77;;;17.40;99.90;;;;;;4935819;29;20248;-72
